North Conway, New Hampshire
Current Conditions -  °F | °C
As of 5:54 AM on Sunday 21 Dec 2014 (Local Time) from KIZG Reporting Station
Overcast Overcast  
Wind Chill: -8°   Ceiling: 10000
Heat Index: -8°   Visibility: 10mi
Dew Point: -9°   Wind: 0mph
Humidity: 88%   Direction: NA
Pressure: 30.34"   Gusts: NA
Location:  44.05°N, 71.13°W
Report Text: KIZG 211054Z AUTO 00000KT 10SM SCT009 OVC100 M08/M09 A3034 RMK AO2 SLP282 T10781094
Loading
Personal Weather Stations






























Interactive Weather Map New forecast layout! Learn more

10-Day Weather Forecast

Advertisements
Track Severe Weather on mobile